sensor_id;sensor_type;location;lat;lon;timestamp;temperature;humidity
4249;DHT22;8404;48.752;12.922;2022-12-05T00:01:51;4.30;99.90
4249;DHT22;8404;48.752;12.922;2022-12-05T00:04:19;4.30;99.90
4249;DHT22;8404;48.752;12.922;2022-12-05T00:06:48;4.40;99.90
4249;DHT22;8404;48.752;12.922;2022-12-05T00:09:16;4.40;99.90
4249;DHT22;8404;48.752;12.922;2022-12-05T00:11:44;4.40;99.90
4249;DHT22;8404;48.752;12.922;2022-12-05T00:14:13;4.40;99.90
4249;DHT22;8404;48.752;12.922;2022-12-05T00:16:42;4.50;99.90
4249;DHT22;8404;48.752;12.922;2022-12-05T00:19:14;4.50;99.90
4249;DHT22;8404;48.752;12.922;2022-12-05T00:21:42;4.50;99.90
4249;DHT22;8404;48.752;12.922;2022-12-05T00:24:12;4.50;99.90
4249;DHT22;8404;48.752;12.922;2022-12-05T00:26:41;4.60;99.90
4249;DHT22;8404;48.752;12.922;2022-12-05T00:29:10;4.60;99.90
4249;DHT22;8404;48.752;12.922;2022-12-05T00:31:39;4.60;99.90
4249;DHT22;8404;48.752;12.922;2022-12-05T00:34:07;4.60;99.90
4249;DHT22;8404;48.752;12.922;2022-12-05T00:36:37;4.60;99.90
4249;DHT22;8404;48.752;12.922;2022-12-05T00:39:06;4.60;99.90
4249;DHT22;8404;48.752;12.922;2022-12-05T00:41:35;4.60;99.90
4249;DHT22;8404;48.752;12.922;2022-12-05T00:44:03;4.60;99.90
4249;DHT22;8404;48.752;12.922;2022-12-05T00:46:33;4.70;99.90
4249;DHT22;8404;48.752;12.922;2022-12-05T00:49:03;4.70;99.90
4249;DHT22;8404;48.752;12.922;2022-12-05T00:51:34;4.70;99.90
4249;DHT22;8404;48.752;12.922;2022-12-05T00:54:06;4.70;99.90
4249;DHT22;8404;48.752;12.922;2022-12-05T00:56:34;4.70;99.90
4249;DHT22;8404;48.752;12.922;2022-12-05T00:59:03;4.70;99.90
4249;DHT22;8404;48.752;12.922;2022-12-05T01:01:32;4.70;99.90
4249;DHT22;8404;48.752;12.922;2022-12-05T01:04:05;4.70;99.90
4249;DHT22;8404;48.752;12.922;2022-12-05T01:06:33;4.70;99.90
4249;DHT22;8404;48.752;12.922;2022-12-05T01:09:05;4.70;99.90
4249;DHT22;8404;48.752;12.922;2022-12-05T01:11:33;4.70;99.90
4249;DHT22;8404;48.752;12.922;2022-12-05T01:14:07;4.70;99.90
4249;DHT22;8404;48.752;12.922;2022-12-05T01:16:38;4.70;99.90
4249;DHT22;8404;48.752;12.922;2022-12-05T01:19:09;4.70;99.90
4249;DHT22;8404;48.752;12.922;2022-12-05T01:21:37;4.70;99.90
4249;DHT22;8404;48.752;12.922;2022-12-05T01:24:07;4.70;99.90
4249;DHT22;8404;48.752;12.922;2022-12-05T01:26:36;4.70;99.90
4249;DHT22;8404;48.752;12.922;2022-12-05T01:29:04;4.80;99.90
4249;DHT22;8404;48.752;12.922;2022-12-05T01:31:35;4.80;99.90
4249;DHT22;8404;48.752;12.922;2022-12-05T01:34:05;4.80;99.90
4249;DHT22;8404;48.752;12.922;2022-12-05T01:36:34;4.80;99.90
4249;DHT22;8404;48.752;12.922;2022-12-05T01:39:08;4.80;99.90
4249;DHT22;8404;48.752;12.922;2022-12-05T01:41:39;4.80;99.90
4249;DHT22;8404;48.752;12.922;2022-12-05T01:47:09;4.80;99.90
4249;DHT22;8404;48.752;12.922;2022-12-05T01:49:39;4.80;99.90
4249;DHT22;8404;48.752;12.922;2022-12-05T01:52:11;4.80;99.90
4249;DHT22;8404;48.752;12.922;2022-12-05T01:54:43;4.80;99.90
4249;DHT22;8404;48.752;12.922;2022-12-05T01:57:13;4.80;99.90
4249;DHT22;8404;48.752;12.922;2022-12-05T01:59:45;4.80;99.90
4249;DHT22;8404;48.752;12.922;2022-12-05T02:02:14;4.80;99.90
4249;DHT22;8404;48.752;12.922;2022-12-05T02:04:47;4.80;99.90
4249;DHT22;8404;48.752;12.922;2022-12-05T02:07:17;4.80;99.90
4249;DHT22;8404;48.752;12.922;2022-12-05T02:09:48;4.80;99.90
4249;DHT22;8404;48.752;12.922;2022-12-05T02:12:19;4.80;99.90
4249;DHT22;8404;48.752;12.922;2022-12-05T02:14:54;4.80;99.90
4249;DHT22;8404;48.752;12.922;2022-12-05T02:17:30;4.80;99.90
4249;DHT22;8404;48.752;12.922;2022-12-05T02:20:20;4.80;99.90
4249;DHT22;8404;48.752;12.922;2022-12-05T02:23:17;4.80;99.90
4249;DHT22;8404;48.752;12.922;2022-12-05T02:26:09;4.80;99.90
4249;DHT22;8404;48.752;12.922;2022-12-05T02:31:33;4.90;99.90
4249;DHT22;8404;48.752;12.922;2022-12-05T02:34:08;4.90;99.90
4249;DHT22;8404;48.752;12.922;2022-12-05T02:36:40;4.90;99.90
4249;DHT22;8404;48.752;12.922;2022-12-05T02:39:14;4.90;99.90
4249;DHT22;8404;48.752;12.922;2022-12-05T02:41:48;4.90;99.90
4249;DHT22;8404;48.752;12.922;2022-12-05T02:44:21;4.90;99.90
4249;DHT22;8404;48.752;12.922;2022-12-05T02:46:53;4.90;99.90
4249;DHT22;8404;48.752;12.922;2022-12-05T02:49:25;4.90;99.90
4249;DHT22;8404;48.752;12.922;2022-12-05T02:51:57;4.90;99.90
4249;DHT22;8404;48.752;12.922;2022-12-05T02:54:28;4.90;99.90
4249;DHT22;8404;48.752;12.922;2022-12-05T02:56:59;4.90;99.90
4249;DHT22;8404;48.752;12.922;2022-12-05T02:59:27;4.90;99.90
4249;DHT22;8404;48.752;12.922;2022-12-05T03:01:57;4.90;99.90
4249;DHT22;8404;48.752;12.922;2022-12-05T03:04:26;4.90;99.90
4249;DHT22;8404;48.752;12.922;2022-12-05T03:06:58;4.90;99.90
4249;DHT22;8404;48.752;12.922;2022-12-05T03:09:33;4.90;99.90
4249;DHT22;8404;48.752;12.922;2022-12-05T03:12:07;4.90;99.90
4249;DHT22;8404;48.752;12.922;2022-12-05T03:14:41;4.90;99.90
4249;DHT22;8404;48.752;12.922;2022-12-05T03:17:16;4.90;99.90
4249;DHT22;8404;48.752;12.922;2022-12-05T03:19:51;4.90;99.90
4249;DHT22;8404;48.752;12.922;2022-12-05T03:22:25;4.90;99.90
4249;DHT22;8404;48.752;12.922;2022-12-05T03:24:54;4.90;99.90
4249;DHT22;8404;48.752;12.922;2022-12-05T03:27:28;4.90;99.90
4249;DHT22;8404;48.752;12.922;2022-12-05T03:30:02;4.90;99.90
4249;DHT22;8404;48.752;12.922;2022-12-05T03:32:35;5.00;99.90
4249;DHT22;8404;48.752;12.922;2022-12-05T03:35:09;4.90;99.90
4249;DHT22;8404;48.752;12.922;2022-12-05T03:37:44;4.90;99.90
4249;DHT22;8404;48.752;12.922;2022-12-05T03:40:25;4.90;99.90
4249;DHT22;8404;48.752;12.922;2022-12-05T03:43:00;4.80;99.90
4249;DHT22;8404;48.752;12.922;2022-12-05T03:45:35;4.80;99.90
4249;DHT22;8404;48.752;12.922;2022-12-05T03:48:10;4.70;99.90
4249;DHT22;8404;48.752;12.922;2022-12-05T03:50:43;4.70;99.90
4249;DHT22;8404;48.752;12.922;2022-12-05T03:53:16;4.70;99.90
4249;DHT22;8404;48.752;12.922;2022-12-05T03:55:52;4.60;99.90
4249;DHT22;8404;48.752;12.922;2022-12-05T03:58:26;4.60;99.90
4249;DHT22;8404;48.752;12.922;2022-12-05T04:00:56;4.50;99.90
4249;DHT22;8404;48.752;12.922;2022-12-05T04:03:31;4.50;99.90
4249;DHT22;8404;48.752;12.922;2022-12-05T04:06:11;4.50;99.90
4249;DHT22;8404;48.752;12.922;2022-12-05T04:08:44;4.50;99.90
4249;DHT22;8404;48.752;12.922;2022-12-05T04:11:16;4.50;99.90
4249;DHT22;8404;48.752;12.922;2022-12-05T04:13:47;4.40;99.90
4249;DHT22;8404;48.752;12.922;2022-12-05T04:16:19;4.40;99.90
4249;DHT22;8404;48.752;12.922;2022-12-05T04:19:16;4.40;99.90
4249;DHT22;8404;48.752;12.922;2022-12-05T04:21:47;4.40;99.90
4249;DHT22;8404;48.752;12.922;2022-12-05T04:24:18;4.40;99.90
4249;DHT22;8404;48.752;12.922;2022-12-05T04:27:12;4.40;99.90
4249;DHT22;8404;48.752;12.922;2022-12-05T04:29:49;4.40;99.90
4249;DHT22;8404;48.752;12.922;2022-12-05T04:32:25;4.40;99.90
4249;DHT22;8404;48.752;12.922;2022-12-05T04:35:03;4.30;99.90
4249;DHT22;8404;48.752;12.922;2022-12-05T04:37:36;4.30;99.90
4249;DHT22;8404;48.752;12.922;2022-12-05T04:40:10;4.40;99.90
4249;DHT22;8404;48.752;12.922;2022-12-05T04:42:39;4.40;99.90
4249;DHT22;8404;48.752;12.922;2022-12-05T04:45:11;4.40;99.90
4249;DHT22;8404;48.752;12.922;2022-12-05T04:47:42;4.30;99.90
4249;DHT22;8404;48.752;12.922;2022-12-05T04:50:13;4.30;99.90
4249;DHT22;8404;48.752;12.922;2022-12-05T04:52:46;4.30;99.90
4249;DHT22;8404;48.752;12.922;2022-12-05T04:55:18;4.30;99.90
4249;DHT22;8404;48.752;12.922;2022-12-05T04:57:57;4.20;99.90
4249;DHT22;8404;48.752;12.922;2022-12-05T05:00:29;4.20;99.90
4249;DHT22;8404;48.752;12.922;2022-12-05T05:03:04;4.10;99.90
4249;DHT22;8404;48.752;12.922;2022-12-05T05:05:37;4.10;99.90
4249;DHT22;8404;48.752;12.922;2022-12-05T05:08:15;4.10;99.90
4249;DHT22;8404;48.752;12.922;2022-12-05T05:10:50;4.20;99.90
4249;DHT22;8404;48.752;12.922;2022-12-05T05:13:19;4.10;99.90
4249;DHT22;8404;48.752;12.922;2022-12-05T05:15:47;4.00;99.90
4249;DHT22;8404;48.752;12.922;2022-12-05T05:18:15;4.00;99.90
4249;DHT22;8404;48.752;12.922;2022-12-05T05:20:44;3.90;99.90
4249;DHT22;8404;48.752;12.922;2022-12-05T05:23:12;3.90;99.90
4249;DHT22;8404;48.752;12.922;2022-12-05T05:25:41;3.90;99.90
4249;DHT22;8404;48.752;12.922;2022-12-05T05:28:09;3.90;99.90
4249;DHT22;8404;48.752;12.922;2022-12-05T05:30:37;3.90;99.90
4249;DHT22;8404;48.752;12.922;2022-12-05T05:33:05;3.90;99.90
4249;DHT22;8404;48.752;12.922;2022-12-05T05:35:35;3.90;99.90
4249;DHT22;8404;48.752;12.922;2022-12-05T05:38:04;3.90;99.90
4249;DHT22;8404;48.752;12.922;2022-12-05T05:40:34;3.80;99.90
4249;DHT22;8404;48.752;12.922;2022-12-05T05:43:02;3.80;99.90
4249;DHT22;8404;48.752;12.922;2022-12-05T05:45:30;3.80;99.90
4249;DHT22;8404;48.752;12.922;2022-12-05T05:47:58;3.80;99.90
4249;DHT22;8404;48.752;12.922;2022-12-05T05:50:27;3.80;99.90
4249;DHT22;8404;48.752;12.922;2022-12-05T05:52:55;3.80;99.90
4249;DHT22;8404;48.752;12.922;2022-12-05T05:55:25;3.80;99.90
4249;DHT22;8404;48.752;12.922;2022-12-05T05:57:53;3.90;99.90
4249;DHT22;8404;48.752;12.922;2022-12-05T06:00:21;3.90;99.90
4249;DHT22;8404;48.752;12.922;2022-12-05T06:02:49;3.90;99.90
4249;DHT22;8404;48.752;12.922;2022-12-05T06:05:17;3.80;99.90
4249;DHT22;8404;48.752;12.922;2022-12-05T06:07:45;3.80;99.90
4249;DHT22;8404;48.752;12.922;2022-12-05T06:10:13;3.80;99.90
4249;DHT22;8404;48.752;12.922;2022-12-05T06:12:43;3.70;99.90
4249;DHT22;8404;48.752;12.922;2022-12-05T06:15:11;3.80;99.90
4249;DHT22;8404;48.752;12.922;2022-12-05T06:17:39;3.80;99.90
4249;DHT22;8404;48.752;12.922;2022-12-05T06:20:08;3.70;99.90
4249;DHT22;8404;48.752;12.922;2022-12-05T06:22:36;3.70;99.90
4249;DHT22;8404;48.752;12.922;2022-12-05T06:25:05;3.70;99.90
4249;DHT22;8404;48.752;12.922;2022-12-05T06:27:33;3.70;99.90
4249;DHT22;8404;48.752;12.922;2022-12-05T06:30:04;3.60;99.90
4249;DHT22;8404;48.752;12.922;2022-12-05T06:32:32;3.60;99.90
4249;DHT22;8404;48.752;12.922;2022-12-05T06:35:00;3.70;99.90
4249;DHT22;8404;48.752;12.922;2022-12-05T06:37:35;3.60;99.90
4249;DHT22;8404;48.752;12.922;2022-12-05T06:40:05;3.60;99.90
4249;DHT22;8404;48.752;12.922;2022-12-05T06:42:33;3.60;99.90
4249;DHT22;8404;48.752;12.922;2022-12-05T06:45:02;3.60;99.90
4249;DHT22;8404;48.752;12.922;2022-12-05T06:47:31;3.60;99.90
4249;DHT22;8404;48.752;12.922;2022-12-05T06:49:59;3.60;99.90
4249;DHT22;8404;48.752;12.922;2022-12-05T06:52:27;3.60;99.90
4249;DHT22;8404;48.752;12.922;2022-12-05T06:54:55;3.60;99.90
4249;DHT22;8404;48.752;12.922;2022-12-05T06:57:27;3.60;99.90
4249;DHT22;8404;48.752;12.922;2022-12-05T06:59:55;3.60;99.90
4249;DHT22;8404;48.752;12.922;2022-12-05T07:02:49;3.60;99.90
4249;DHT22;8404;48.752;12.922;2022-12-05T07:05:16;3.60;99.90
4249;DHT22;8404;48.752;12.922;2022-12-05T07:07:44;3.60;99.90
4249;DHT22;8404;48.752;12.922;2022-12-05T07:10:12;3.60;99.90
4249;DHT22;8404;48.752;12.922;2022-12-05T07:12:40;3.60;99.90
4249;DHT22;8404;48.752;12.922;2022-12-05T07:15:09;3.60;99.90
4249;DHT22;8404;48.752;12.922;2022-12-05T07:17:37;3.60;99.90
4249;DHT22;8404;48.752;12.922;2022-12-05T07:20:08;3.60;99.90
4249;DHT22;8404;48.752;12.922;2022-12-05T07:22:38;3.60;99.90
4249;DHT22;8404;48.752;12.922;2022-12-05T07:25:07;3.60;99.90
4249;DHT22;8404;48.752;12.922;2022-12-05T07:27:35;3.60;99.90
4249;DHT22;8404;48.752;12.922;2022-12-05T07:30:03;3.60;99.90
4249;DHT22;8404;48.752;12.922;2022-12-05T07:32:32;3.60;99.90
4249;DHT22;8404;48.752;12.922;2022-12-05T07:35:00;3.60;99.90
4249;DHT22;8404;48.752;12.922;2022-12-05T07:37:29;3.60;99.90
4249;DHT22;8404;48.752;12.922;2022-12-05T07:39:57;3.60;99.90
4249;DHT22;8404;48.752;12.922;2022-12-05T07:42:26;3.50;99.90
4249;DHT22;8404;48.752;12.922;2022-12-05T07:44:54;3.50;99.90
4249;DHT22;8404;48.752;12.922;2022-12-05T07:47:22;3.50;99.90
4249;DHT22;8404;48.752;12.922;2022-12-05T07:49:50;3.50;99.90
4249;DHT22;8404;48.752;12.922;2022-12-05T07:52:18;3.50;99.90
4249;DHT22;8404;48.752;12.922;2022-12-05T07:54:48;3.50;99.90
4249;DHT22;8404;48.752;12.922;2022-12-05T07:57:16;3.40;99.90
4249;DHT22;8404;48.752;12.922;2022-12-05T07:59:44;3.40;99.90
4249;DHT22;8404;48.752;12.922;2022-12-05T08:02:12;3.30;99.90
4249;DHT22;8404;48.752;12.922;2022-12-05T08:04:40;3.30;99.90
4249;DHT22;8404;48.752;12.922;2022-12-05T08:07:09;3.20;99.90
4249;DHT22;8404;48.752;12.922;2022-12-05T08:09:37;3.20;99.90
4249;DHT22;8404;48.752;12.922;2022-12-05T08:12:07;3.30;99.90
4249;DHT22;8404;48.752;12.922;2022-12-05T08:14:35;3.20;99.90
4249;DHT22;8404;48.752;12.922;2022-12-05T08:17:03;3.20;99.90
4249;DHT22;8404;48.752;12.922;2022-12-05T08:19:31;3.20;99.90
4249;DHT22;8404;48.752;12.922;2022-12-05T08:21:59;3.20;99.90
4249;DHT22;8404;48.752;12.922;2022-12-05T08:24:27;3.20;99.90
4249;DHT22;8404;48.752;12.922;2022-12-05T08:26:56;3.20;99.90
4249;DHT22;8404;48.752;12.922;2022-12-05T08:29:25;3.20;99.90
4249;DHT22;8404;48.752;12.922;2022-12-05T08:31:54;3.10;99.90
4249;DHT22;8404;48.752;12.922;2022-12-05T08:34:22;3.10;99.90
4249;DHT22;8404;48.752;12.922;2022-12-05T08:36:50;3.10;99.90
4249;DHT22;8404;48.752;12.922;2022-12-05T08:39:18;3.10;99.90
4249;DHT22;8404;48.752;12.922;2022-12-05T08:41:47;3.10;99.90
4249;DHT22;8404;48.752;12.922;2022-12-05T08:44:16;3.10;99.90
4249;DHT22;8404;48.752;12.922;2022-12-05T08:46:47;3.10;99.90
4249;DHT22;8404;48.752;12.922;2022-12-05T08:49:16;3.20;99.90
4249;DHT22;8404;48.752;12.922;2022-12-05T08:51:44;3.10;99.90
4249;DHT22;8404;48.752;12.922;2022-12-05T08:54:12;3.10;99.90
4249;DHT22;8404;48.752;12.922;2022-12-05T08:56:41;3.10;99.90
4249;DHT22;8404;48.752;12.922;2022-12-05T08:59:09;3.20;99.90
4249;DHT22;8404;48.752;12.922;2022-12-05T09:01:37;3.20;99.90
4249;DHT22;8404;48.752;12.922;2022-12-05T09:04:07;3.20;99.90
4249;DHT22;8404;48.752;12.922;2022-12-05T09:06:35;3.20;99.90
4249;DHT22;8404;48.752;12.922;2022-12-05T09:09:07;3.20;99.90
4249;DHT22;8404;48.752;12.922;2022-12-05T09:11:39;3.20;99.90
4249;DHT22;8404;48.752;12.922;2022-12-05T09:14:11;3.20;99.90
4249;DHT22;8404;48.752;12.922;2022-12-05T09:16:40;3.20;99.90
4249;DHT22;8404;48.752;12.922;2022-12-05T09:19:13;3.20;99.90
4249;DHT22;8404;48.752;12.922;2022-12-05T09:21:43;3.20;99.90
4249;DHT22;8404;48.752;12.922;2022-12-05T09:24:12;3.10;99.90
4249;DHT22;8404;48.752;12.922;2022-12-05T09:26:41;3.10;99.90
4249;DHT22;8404;48.752;12.922;2022-12-05T09:29:09;3.10;99.90
4249;DHT22;8404;48.752;12.922;2022-12-05T09:31:44;3.00;99.90
4249;DHT22;8404;48.752;12.922;2022-12-05T09:34:13;3.00;99.90
4249;DHT22;8404;48.752;12.922;2022-12-05T09:36:44;3.10;99.90
4249;DHT22;8404;48.752;12.922;2022-12-05T09:39:15;3.10;99.90
4249;DHT22;8404;48.752;12.922;2022-12-05T09:47:44;3.10;99.90
4249;DHT22;8404;48.752;12.922;2022-12-05T09:50:20;3.10;99.90
4249;DHT22;8404;48.752;12.922;2022-12-05T09:53:02;3.20;99.90
4249;DHT22;8404;48.752;12.922;2022-12-05T09:55:40;3.20;99.90
4249;DHT22;8404;48.752;12.922;2022-12-05T09:58:25;3.20;99.90
4249;DHT22;8404;48.752;12.922;2022-12-05T10:01:01;3.20;99.90
4249;DHT22;8404;48.752;12.922;2022-12-05T10:03:36;3.10;99.90
4249;DHT22;8404;48.752;12.922;2022-12-05T10:06:12;3.20;99.90
4249;DHT22;8404;48.752;12.922;2022-12-05T10:09:03;3.20;99.90
4249;DHT22;8404;48.752;12.922;2022-12-05T10:11:38;3.20;99.90
4249;DHT22;8404;48.752;12.922;2022-12-05T10:14:14;3.20;99.90
4249;DHT22;8404;48.752;12.922;2022-12-05T10:16:48;3.20;99.90
4249;DHT22;8404;48.752;12.922;2022-12-05T10:19:23;3.20;99.90
4249;DHT22;8404;48.752;12.922;2022-12-05T10:21:58;3.20;99.90
4249;DHT22;8404;48.752;12.922;2022-12-05T10:24:31;3.30;99.90
4249;DHT22;8404;48.752;12.922;2022-12-05T10:27:03;3.30;99.90
4249;DHT22;8404;48.752;12.922;2022-12-05T10:29:34;3.20;99.90
4249;DHT22;8404;48.752;12.922;2022-12-05T10:32:10;3.30;99.90
4249;DHT22;8404;48.752;12.922;2022-12-05T10:34:41;3.30;99.90
4249;DHT22;8404;48.752;12.922;2022-12-05T10:37:14;3.30;99.90
4249;DHT22;8404;48.752;12.922;2022-12-05T10:39:43;3.30;99.90
4249;DHT22;8404;48.752;12.922;2022-12-05T10:42:15;3.20;99.90
4249;DHT22;8404;48.752;12.922;2022-12-05T10:44:44;3.20;99.90
4249;DHT22;8404;48.752;12.922;2022-12-05T10:47:12;3.20;99.90
4249;DHT22;8404;48.752;12.922;2022-12-05T10:49:41;3.20;99.90
4249;DHT22;8404;48.752;12.922;2022-12-05T10:52:12;3.20;99.90
4249;DHT22;8404;48.752;12.922;2022-12-05T10:54:44;3.20;99.90
4249;DHT22;8404;48.752;12.922;2022-12-05T10:57:22;3.30;99.90
4249;DHT22;8404;48.752;12.922;2022-12-05T10:59:50;3.30;99.90
4249;DHT22;8404;48.752;12.922;2022-12-05T11:02:22;3.30;99.90
4249;DHT22;8404;48.752;12.922;2022-12-05T11:04:52;3.30;99.90
4249;DHT22;8404;48.752;12.922;2022-12-05T11:07:28;3.40;99.90
4249;DHT22;8404;48.752;12.922;2022-12-05T11:09:57;3.40;99.90
4249;DHT22;8404;48.752;12.922;2022-12-05T11:12:28;3.40;99.90
4249;DHT22;8404;48.752;12.922;2022-12-05T11:15:00;3.40;99.90
4249;DHT22;8404;48.752;12.922;2022-12-05T11:17:31;3.30;99.90
4249;DHT22;8404;48.752;12.922;2022-12-05T11:20:00;3.30;99.90
4249;DHT22;8404;48.752;12.922;2022-12-05T11:22:34;3.30;99.90
4249;DHT22;8404;48.752;12.922;2022-12-05T11:25:22;3.30;99.90
4249;DHT22;8404;48.752;12.922;2022-12-05T11:27:51;3.30;99.90
4249;DHT22;8404;48.752;12.922;2022-12-05T11:30:27;3.30;99.90
4249;DHT22;8404;48.752;12.922;2022-12-05T11:33:10;3.30;99.90
4249;DHT22;8404;48.752;12.922;2022-12-05T11:35:39;3.40;99.90
4249;DHT22;8404;48.752;12.922;2022-12-05T11:38:10;3.40;99.90
4249;DHT22;8404;48.752;12.922;2022-12-05T11:40:46;3.50;99.90
4249;DHT22;8404;48.752;12.922;2022-12-05T11:43:45;3.50;99.90
4249;DHT22;8404;48.752;12.922;2022-12-05T11:46:22;3.60;99.90
4249;DHT22;8404;48.752;12.922;2022-12-05T11:49:11;3.60;99.90
4249;DHT22;8404;48.752;12.922;2022-12-05T11:51:46;3.70;99.90
4249;DHT22;8404;48.752;12.922;2022-12-05T11:57:45;3.70;99.90
4249;DHT22;8404;48.752;12.922;2022-12-05T12:00:22;3.80;99.90
4249;DHT22;8404;48.752;12.922;2022-12-05T12:03:18;3.90;99.90
4249;DHT22;8404;48.752;12.922;2022-12-05T12:05:54;3.90;99.90
4249;DHT22;8404;48.752;12.922;2022-12-05T12:08:28;3.90;99.90
4249;DHT22;8404;48.752;12.922;2022-12-05T12:11:04;4.00;99.90
4249;DHT22;8404;48.752;12.922;2022-12-05T12:13:49;4.10;99.90
4249;DHT22;8404;48.752;12.922;2022-12-05T12:16:30;4.20;99.90
4249;DHT22;8404;48.752;12.922;2022-12-05T12:22:12;4.30;99.90
4249;DHT22;8404;48.752;12.922;2022-12-05T12:27:49;4.40;99.90
4249;DHT22;8404;48.752;12.922;2022-12-05T12:30:21;4.40;99.90
4249;DHT22;8404;48.752;12.922;2022-12-05T12:32:59;4.40;99.90
4249;DHT22;8404;48.752;12.922;2022-12-05T12:35:29;4.40;99.90
4249;DHT22;8404;48.752;12.922;2022-12-05T12:38:16;4.40;99.90
4249;DHT22;8404;48.752;12.922;2022-12-05T12:40:49;4.50;99.90
4249;DHT22;8404;48.752;12.922;2022-12-05T12:43:34;4.50;99.90
4249;DHT22;8404;48.752;12.922;2022-12-05T12:46:28;4.50;99.90
4249;DHT22;8404;48.752;12.922;2022-12-05T12:49:21;4.50;99.90
4249;DHT22;8404;48.752;12.922;2022-12-05T12:51:52;4.50;99.90
4249;DHT22;8404;48.752;12.922;2022-12-05T12:54:33;4.60;99.90
4249;DHT22;8404;48.752;12.922;2022-12-05T12:57:26;4.60;99.90
4249;DHT22;8404;48.752;12.922;2022-12-05T13:00:03;4.70;99.90
4249;DHT22;8404;48.752;12.922;2022-12-05T13:02:35;4.60;99.90
4249;DHT22;8404;48.752;12.922;2022-12-05T13:05:10;4.70;99.90
4249;DHT22;8404;48.752;12.922;2022-12-05T13:07:45;4.70;99.90
4249;DHT22;8404;48.752;12.922;2022-12-05T13:10:19;4.70;99.90
4249;DHT22;8404;48.752;12.922;2022-12-05T13:12:51;4.70;99.90
4249;DHT22;8404;48.752;12.922;2022-12-05T13:15:26;4.70;99.90
4249;DHT22;8404;48.752;12.922;2022-12-05T13:17:56;4.70;99.90
4249;DHT22;8404;48.752;12.922;2022-12-05T13:20:28;4.80;99.90
4249;DHT22;8404;48.752;12.922;2022-12-05T13:22:58;4.80;99.90
4249;DHT22;8404;48.752;12.922;2022-12-05T13:25:35;4.80;99.90
4249;DHT22;8404;48.752;12.922;2022-12-05T13:28:34;4.80;99.90
4249;DHT22;8404;48.752;12.922;2022-12-05T13:31:10;4.70;99.90
4249;DHT22;8404;48.752;12.922;2022-12-05T13:33:45;4.70;99.90
4249;DHT22;8404;48.752;12.922;2022-12-05T13:36:15;4.70;99.90
4249;DHT22;8404;48.752;12.922;2022-12-05T13:39:04;4.70;99.90
4249;DHT22;8404;48.752;12.922;2022-12-05T13:41:52;4.70;99.90
4249;DHT22;8404;48.752;12.922;2022-12-05T13:44:40;4.80;99.90
4249;DHT22;8404;48.752;12.922;2022-12-05T13:47:26;4.80;99.90
4249;DHT22;8404;48.752;12.922;2022-12-05T13:50:02;4.80;99.90
4249;DHT22;8404;48.752;12.922;2022-12-05T13:52:39;4.80;99.90
4249;DHT22;8404;48.752;12.922;2022-12-05T13:55:20;4.80;99.90
4249;DHT22;8404;48.752;12.922;2022-12-05T13:57:52;4.80;99.90
4249;DHT22;8404;48.752;12.922;2022-12-05T14:00:24;4.80;99.90
4249;DHT22;8404;48.752;12.922;2022-12-05T14:02:56;4.80;99.90
4249;DHT22;8404;48.752;12.922;2022-12-05T14:05:45;4.80;99.90
4249;DHT22;8404;48.752;12.922;2022-12-05T14:08:51;4.80;99.90
4249;DHT22;8404;48.752;12.922;2022-12-05T14:11:20;4.80;99.90
4249;DHT22;8404;48.752;12.922;2022-12-05T14:13:48;4.80;99.90
4249;DHT22;8404;48.752;12.922;2022-12-05T14:16:47;4.80;99.90
4249;DHT22;8404;48.752;12.922;2022-12-05T14:19:52;4.80;99.90
4249;DHT22;8404;48.752;12.922;2022-12-05T14:22:41;4.80;99.90
4249;DHT22;8404;48.752;12.922;2022-12-05T14:25:22;4.80;99.90
4249;DHT22;8404;48.752;12.922;2022-12-05T14:27:57;4.80;99.90
4249;DHT22;8404;48.752;12.922;2022-12-05T14:30:33;4.80;99.90
4249;DHT22;8404;48.752;12.922;2022-12-05T14:33:38;4.80;99.90
4249;DHT22;8404;48.752;12.922;2022-12-05T14:36:14;4.80;99.90
4249;DHT22;8404;48.752;12.922;2022-12-05T14:38:43;4.80;99.90
4249;DHT22;8404;48.752;12.922;2022-12-05T14:41:14;4.80;99.90
4249;DHT22;8404;48.752;12.922;2022-12-05T14:43:43;4.80;99.90
4249;DHT22;8404;48.752;12.922;2022-12-05T14:46:18;4.70;99.90
4249;DHT22;8404;48.752;12.922;2022-12-05T14:48:48;4.80;99.90
4249;DHT22;8404;48.752;12.922;2022-12-05T14:51:43;4.70;99.90
4249;DHT22;8404;48.752;12.922;2022-12-05T14:54:14;4.70;99.90
4249;DHT22;8404;48.752;12.922;2022-12-05T14:56:44;4.70;99.90
4249;DHT22;8404;48.752;12.922;2022-12-05T14:59:22;4.70;99.90
4249;DHT22;8404;48.752;12.922;2022-12-05T15:01:53;4.70;99.90
4249;DHT22;8404;48.752;12.922;2022-12-05T15:04:25;4.70;99.90
4249;DHT22;8404;48.752;12.922;2022-12-05T15:07:00;4.70;99.90
4249;DHT22;8404;48.752;12.922;2022-12-05T15:09:37;4.70;99.90
4249;DHT22;8404;48.752;12.922;2022-12-05T15:12:11;4.70;99.90
4249;DHT22;8404;48.752;12.922;2022-12-05T15:14:45;4.70;99.90
4249;DHT22;8404;48.752;12.922;2022-12-05T15:17:17;4.70;99.90
4249;DHT22;8404;48.752;12.922;2022-12-05T15:19:51;4.70;99.90
4249;DHT22;8404;48.752;12.922;2022-12-05T15:22:26;4.70;99.90
4249;DHT22;8404;48.752;12.922;2022-12-05T15:24:54;4.70;99.90
4249;DHT22;8404;48.752;12.922;2022-12-05T15:27:23;4.70;99.90
4249;DHT22;8404;48.752;12.922;2022-12-05T15:29:53;4.70;99.90
4249;DHT22;8404;48.752;12.922;2022-12-05T15:32:24;4.70;99.90
4249;DHT22;8404;48.752;12.922;2022-12-05T15:34:58;4.60;99.90
4249;DHT22;8404;48.752;12.922;2022-12-05T15:37:33;4.60;99.90
4249;DHT22;8404;48.752;12.922;2022-12-05T15:40:08;4.60;99.90
4249;DHT22;8404;48.752;12.922;2022-12-05T15:42:41;4.60;99.90
4249;DHT22;8404;48.752;12.922;2022-12-05T15:45:21;4.60;99.90
4249;DHT22;8404;48.752;12.922;2022-12-05T15:47:53;4.60;99.90
4249;DHT22;8404;48.752;12.922;2022-12-05T15:50:29;4.50;99.90
4249;DHT22;8404;48.752;12.922;2022-12-05T15:53:04;4.50;99.90
4249;DHT22;8404;48.752;12.922;2022-12-05T15:55:36;4.50;99.90
4249;DHT22;8404;48.752;12.922;2022-12-05T15:58:08;4.50;99.90
4249;DHT22;8404;48.752;12.922;2022-12-05T16:00:42;4.50;99.90
4249;DHT22;8404;48.752;12.922;2022-12-05T16:03:16;4.60;99.90
4249;DHT22;8404;48.752;12.922;2022-12-05T16:05:49;4.60;99.90
4249;DHT22;8404;48.752;12.922;2022-12-05T16:08:20;4.60;99.90
4249;DHT22;8404;48.752;12.922;2022-12-05T16:10:50;4.60;99.90
4249;DHT22;8404;48.752;12.922;2022-12-05T16:13:21;4.60;99.90
4249;DHT22;8404;48.752;12.922;2022-12-05T16:15:53;4.60;99.90
4249;DHT22;8404;48.752;12.922;2022-12-05T16:18:24;4.60;99.90
4249;DHT22;8404;48.752;12.922;2022-12-05T16:20:53;4.60;99.90
4249;DHT22;8404;48.752;12.922;2022-12-05T16:23:26;4.60;99.90
4249;DHT22;8404;48.752;12.922;2022-12-05T16:26:09;4.50;99.90
4249;DHT22;8404;48.752;12.922;2022-12-05T16:28:55;4.40;99.90
4249;DHT22;8404;48.752;12.922;2022-12-05T16:31:24;4.30;99.90
4249;DHT22;8404;48.752;12.922;2022-12-05T16:33:59;4.30;99.90
4249;DHT22;8404;48.752;12.922;2022-12-05T16:36:29;4.40;99.90
4249;DHT22;8404;48.752;12.922;2022-12-05T16:39:05;4.40;99.90
4249;DHT22;8404;48.752;12.922;2022-12-05T16:41:35;4.40;99.90
4249;DHT22;8404;48.752;12.922;2022-12-05T16:44:04;4.40;99.90
4249;DHT22;8404;48.752;12.922;2022-12-05T16:46:45;4.40;99.90
4249;DHT22;8404;48.752;12.922;2022-12-05T16:49:30;4.40;99.90
4249;DHT22;8404;48.752;12.922;2022-12-05T16:52:02;4.40;99.90
4249;DHT22;8404;48.752;12.922;2022-12-05T16:54:34;4.40;99.90
4249;DHT22;8404;48.752;12.922;2022-12-05T16:57:03;4.50;99.90
4249;DHT22;8404;48.752;12.922;2022-12-05T16:59:33;4.50;99.90
4249;DHT22;8404;48.752;12.922;2022-12-05T17:02:04;4.50;99.90